Time;durP1;ratioP1;P1;durP2;ratioP2;P2;SDS_P1;SDS_P2;PMS_P1;PMS_P2;Temp;Humidity;BMP_temperature;BMP_pressure;BME280_temperature;BME280_humidity;BME280_pressure;Samples;Min_cycle;Max_cycle;Signal;HPM_P1;HPM_P2
2023/06/30 00:01:01;;;;;;;3.42;1.20;;;;;;;24.35;48.22;101419.22;5031142;28;20034;-65
2023/06/30 00:03:26;;;;;;;3.22;1.27;;;;;;;24.35;48.56;101411.25;5031267;28;20124;-65
2023/06/30 00:05:51;;;;;;;4.53;1.33;;;;;;;24.33;47.95;101415.06;5031223;28;20094;-65
2023/06/30 00:08:16;;;;;;;5.90;1.40;;;;;;;24.34;48.16;101419.38;5030951;28;20432;-66
2023/06/30 00:10:42;;;;;;;3.03;1.30;;;;;;;24.34;48.39;101414.91;5031482;28;20033;-64
2023/06/30 00:13:08;;;;;;;3.05;1.10;;;;;;;24.34;48.12;101422.03;5031530;28;20040;-65
2023/06/30 00:15:33;;;;;;;4.07;1.15;;;;;;;24.31;47.89;101414.34;5031418;28;20036;-64
2023/06/30 00:17:58;;;;;;;3.92;1.20;;;;;;;24.30;48.44;101410.88;5030958;28;20044;-64
2023/06/30 00:20:24;;;;;;;3.78;1.33;;;;;;;24.32;47.80;101424.84;5031239;28;20049;-64
2023/06/30 00:22:51;;;;;;;3.85;1.20;;;;;;;24.30;48.22;101413.53;5030944;28;20033;-64
2023/06/30 00:25:17;;;;;;;3.13;1.35;;;;;;;24.29;48.15;101406.53;5030053;28;20060;-65
2023/06/30 00:27:42;;;;;;;3.20;1.33;;;;;;;24.30;47.82;101404.72;5031304;28;20029;-65
2023/06/30 00:30:08;;;;;;;3.17;1.20;;;;;;;24.28;47.75;101404.88;5030723;28;20622;-65
2023/06/30 00:32:34;;;;;;;5.53;1.30;;;;;;;24.29;48.16;101405.69;5031168;28;20350;-65
2023/06/30 00:35:00;;;;;;;3.15;1.00;;;;;;;24.28;47.87;101402.19;5031304;28;20405;-64
2023/06/30 00:37:26;;;;;;;5.72;1.70;;;;;;;24.26;47.95;101402.34;5030696;28;20033;-64
2023/06/30 00:39:51;;;;;;;3.78;1.30;;;;;;;24.26;47.84;101394.34;5031313;28;20033;-64
2023/06/30 00:42:16;;;;;;;4.63;1.50;;;;;;;24.26;47.46;101397.03;5037307;28;20090;-65
2023/06/30 00:44:42;;;;;;;3.22;1.45;;;;;;;24.25;47.47;101392.69;5030112;28;20262;-64
2023/06/30 00:47:10;;;;;;;3.38;1.30;;;;;;;24.24;47.37;101396.34;5031255;28;20042;-65
2023/06/30 00:49:36;;;;;;;3.88;1.30;;;;;;;24.24;47.91;101398.16;5030463;28;20033;-64
2023/06/30 00:52:02;;;;;;;4.05;1.30;;;;;;;24.26;47.37;101396.19;5030479;28;20103;-65
2023/06/30 00:54:27;;;;;;;4.05;1.20;;;;;;;24.25;47.70;101400.66;5031278;28;20877;-63
2023/06/30 00:56:53;;;;;;;4.72;1.30;;;;;;;24.24;47.26;101401.69;5030366;28;20033;-64
2023/06/30 00:59:18;;;;;;;3.63;1.50;;;;;;;24.24;47.36;101403.47;5029623;28;20120;-64
2023/06/30 01:02:08;;;;;;;2.92;1.10;;;;;;;24.22;47.30;101403.63;5030862;28;20073;-65
2023/06/30 01:05:18;;;;;;;4.18;1.52;;;;;;;24.24;47.54;101408.81;5030957;28;20506;-64
2023/06/30 01:07:46;;;;;;;4.85;1.35;;;;;;;24.23;47.54;101405.31;5026610;28;20083;-65
2023/06/30 01:10:15;;;;;;;4.22;1.23;;;;;;;24.23;47.57;101407.16;5030351;28;20068;-65
2023/06/30 01:12:41;;;;;;;4.35;1.30;;;;;;;24.21;47.52;101407.31;5029664;28;20033;-64
2023/06/30 01:15:07;;;;;;;5.50;1.52;;;;;;;24.21;47.55;101398.47;5030176;28;20473;-65
2023/06/30 01:17:35;;;;;;;3.70;1.20;;;;;;;24.20;47.11;101399.47;5030242;28;20043;-65
2023/06/30 01:20:04;;;;;;;3.65;1.17;;;;;;;24.20;47.12;101402.13;5029713;28;20131;-64
2023/06/30 01:22:39;;;;;;;3.67;1.48;;;;;;;24.18;47.59;101407.59;5030074;28;20112;-65
2023/06/30 01:25:09;;;;;;;4.22;1.25;;;;;;;24.19;47.13;101406.59;5030640;28;20082;-65
2023/06/30 01:27:36;;;;;;;4.50;1.55;;;;;;;24.20;46.99;101408.28;5030899;28;20478;-66
2023/06/30 01:30:05;;;;;;;4.35;1.35;;;;;;;24.20;47.38;101410.94;5029940;28;20124;-64
2023/06/30 01:32:31;;;;;;;4.60;1.42;;;;;;;24.17;46.92;101413.91;5030627;28;20047;-64
2023/06/30 01:34:56;;;;;;;4.10;1.33;;;;;;;24.17;46.93;101413.06;5030685;28;20033;-64
2023/06/30 01:37:21;;;;;;;5.22;1.30;;;;;;;24.19;47.37;101405.78;5032741;28;20494;-65
2023/06/30 01:39:47;;;;;;;3.95;1.40;;;;;;;24.18;47.06;101412.06;5033887;28;20376;-65
2023/06/30 01:42:13;;;;;;;4.68;1.30;;;;;;;24.18;46.93;101398.75;5034048;28;20037;-65
2023/06/30 01:44:39;;;;;;;4.95;1.42;;;;;;;24.16;46.79;101395.41;5033635;28;20139;-65
2023/06/30 01:47:05;;;;;;;4.85;1.38;;;;;;;24.16;46.85;101393.59;5032218;28;20025;-64
2023/06/30 01:49:32;;;;;;;3.22;1.33;;;;;;;24.16;46.73;101384.75;5033857;28;20115;-64
2023/06/30 01:51:58;;;;;;;3.70;1.30;;;;;;;24.16;46.59;101385.59;5033954;28;20516;-64
2023/06/30 01:54:23;;;;;;;3.72;1.35;;;;;;;24.16;46.48;101387.44;5034396;28;20037;-65
2023/06/30 01:56:49;;;;;;;3.60;1.40;;;;;;;24.15;47.06;101383.94;5032964;28;20041;-64
2023/06/30 01:59:15;;;;;;;4.20;1.23;;;;;;;24.12;46.86;101383.41;5034180;28;20036;-64
2023/06/30 02:01:40;;;;;;;4.45;1.40;;;;;;;24.15;46.50;101388.41;5033969;28;20037;-65
2023/06/30 02:04:06;;;;;;;4.15;1.35;;;;;;;24.14;46.93;101389.41;5034032;28;20394;-65
2023/06/30 02:06:31;;;;;;;3.63;1.13;;;;;;;24.14;46.70;101390.25;5033847;28;20088;-65
2023/06/30 02:08:56;;;;;;;3.97;1.15;;;;;;;24.13;46.42;101385.06;5033652;28;20117;-65
2023/06/30 02:11:22;;;;;;;3.67;1.13;;;;;;;24.13;46.36;101385.91;5033056;28;20139;-65
2023/06/30 02:13:47;;;;;;;4.45;1.42;;;;;;;24.11;46.43;101379.88;5033782;28;20033;-65
2023/06/30 02:16:12;;;;;;;4.05;1.35;;;;;;;24.10;46.50;101378.25;5033189;28;20044;-65
2023/06/30 02:18:39;;;;;;;3.17;1.38;;;;;;;24.11;46.42;101382.56;5032825;28;20049;-65
2023/06/30 02:21:05;;;;;;;3.33;1.13;;;;;;;24.09;46.30;101384.53;5033573;28;20041;-65
2023/06/30 02:23:30;;;;;;;5.65;1.20;;;;;;;24.10;46.27;101391.56;5033222;28;20033;-65
2023/06/30 02:25:55;;;;;;;4.28;1.20;;;;;;;24.09;46.40;101388.03;5033017;28;20810;-65
2023/06/30 02:28:21;;;;;;;2.83;1.13;;;;;;;24.09;46.09;101387.19;5033141;28;20124;-65
2023/06/30 02:30:46;;;;;;;3.30;1.17;;;;;;;24.09;46.08;101392.53;5032665;28;20049;-65
2023/06/30 02:33:11;;;;;;;4.72;1.30;;;;;;;24.09;45.95;101389.88;5032945;28;20052;-65
2023/06/30 02:35:37;;;;;;;4.72;1.30;;;;;;;24.07;46.44;101391.84;5032284;28;20036;-65
2023/06/30 02:38:03;;;;;;;2.65;1.20;;;;;;;24.03;45.85;101387.81;5032664;28;20067;-65
2023/06/30 02:40:29;;;;;;;2.63;0.95;;;;;;;24.06;46.43;101406.13;5032846;28;20029;-65
2023/06/30 02:42:55;;;;;;;2.90;1.23;;;;;;;24.05;46.03;101405.31;5032739;28;20021;-64
2023/06/30 02:45:20;;;;;;;5.47;1.45;;;;;;;24.06;46.29;101412.28;5032687;28;20032;-65
2023/06/30 02:47:46;;;;;;;4.60;1.60;;;;;;;24.05;45.94;101410.63;5031940;28;20030;-64
2023/06/30 02:50:11;;;;;;;3.05;1.27;;;;;;;24.06;46.28;101416.78;5033390;28;20044;-65
2023/06/30 02:52:37;;;;;;;4.53;1.63;;;;;;;24.05;46.24;101417.78;5032493;28;20043;-64
2023/06/30 02:55:02;;;;;;;3.63;1.25;;;;;;;24.05;46.21;101417.78;5032121;28;20037;-65
2023/06/30 02:57:28;;;;;;;3.25;1.10;;;;;;;24.03;45.77;101417.91;5031902;28;20036;-63
2023/06/30 02:59:53;;;;;;;5.20;1.40;;;;;;;24.02;45.70;101415.41;5032062;28;20059;-63
2023/06/30 03:02:18;;;;;;;4.40;1.45;;;;;;;24.03;45.86;101415.25;5032717;28;20029;-64
2023/06/30 03:04:44;;;;;;;3.88;1.45;;;;;;;24.04;46.05;101418.78;5032430;28;20029;-64
2023/06/30 03:07:09;;;;;;;3.22;1.30;;;;;;;24.02;45.53;101420.72;5032754;28;20044;-65
2023/06/30 03:09:34;;;;;;;4.22;1.70;;;;;;;24.00;45.98;101412.06;5032153;28;20037;-64
2023/06/30 03:12:00;;;;;;;3.30;1.30;;;;;;;24.00;45.88;101412.88;5032558;28;20461;-64
2023/06/30 03:14:25;;;;;;;3.92;1.20;;;;;;;24.00;45.54;101418.22;5031174;28;20033;-64
2023/06/30 03:16:50;;;;;;;3.80;1.45;;;;;;;24.01;45.44;101416.41;5032540;28;20036;-64
2023/06/30 03:19:16;;;;;;;2.65;1.20;;;;;;;24.01;45.48;101413.75;5032274;28;20064;-65
2023/06/30 03:21:41;;;;;;;4.32;1.30;;;;;;;23.99;45.28;101411.22;5031857;28;20029;-64
2023/06/30 03:24:06;;;;;;;5.03;1.50;;;;;;;23.97;45.81;101397.22;5031687;28;20037;-64
2023/06/30 03:26:32;;;;;;;4.40;1.40;;;;;;;23.96;45.67;101395.56;5032349;28;20302;-65
2023/06/30 03:28:57;;;;;;;3.10;1.25;;;;;;;23.99;45.55;101399.72;5031871;28;20033;-63
2023/06/30 03:31:23;;;;;;;4.22;1.48;;;;;;;23.97;45.69;101402.53;5032012;28;20059;-64
2023/06/30 03:33:48;;;;;;;3.70;1.23;;;;;;;23.94;45.70;101389.56;5032169;28;20022;-64
2023/06/30 03:36:14;;;;;;;3.80;1.50;;;;;;;23.94;45.71;101389.56;5032106;28;20079;-64
2023/06/30 03:38:39;;;;;;;2.85;1.17;;;;;;;23.96;45.70;101394.69;5031557;28;20033;-64
2023/06/30 03:41:04;;;;;;;2.63;1.15;;;;;;;23.94;45.41;101397.53;5031842;28;20064;-64
2023/06/30 03:43:31;;;;;;;3.67;1.40;;;;;;;23.94;45.12;101394.88;5031813;28;20060;-64
2023/06/30 03:45:56;;;;;;;3.90;1.42;;;;;;;23.93;45.59;101395.03;5031763;28;20036;-64
2023/06/30 03:48:23;;;;;;;4.38;1.40;;;;;;;23.94;45.11;101394.88;5031185;28;20047;-64
2023/06/30 03:50:52;;;;;;;3.70;1.50;;;;;;;23.90;45.40;101394.31;5032112;28;20033;-64
2023/06/30 03:53:17;;;;;;;3.33;1.20;;;;;;;23.87;45.50;101383.97;5031891;28;20033;-65
2023/06/30 03:55:42;;;;;;;3.22;1.63;;;;;;;23.92;45.36;101383.53;5030980;28;20091;-64
2023/06/30 03:58:08;;;;;;;4.38;1.48;;;;;;;23.92;45.33;101382.69;5031304;28;20048;-65
2023/06/30 04:00:34;;;;;;;3.28;1.67;;;;;;;23.91;45.05;101387.19;5030360;28;20576;-65
2023/06/30 04:02:59;;;;;;;3.75;1.25;;;;;;;23.90;45.39;101380.19;5031430;28;20585;-65
2023/06/30 04:05:25;;;;;;;4.95;1.48;;;;;;;23.90;45.22;101394.31;5031674;28;20131;-64
2023/06/30 04:07:51;;;;;;;3.58;1.38;;;;;;;23.90;45.32;101389.00;5030904;28;20033;-65
2023/06/30 04:10:16;;;;;;;2.70;1.10;;;;;;;23.91;45.32;101395.19;5031488;28;20029;-64
2023/06/30 04:12:42;;;;;;;2.83;1.30;;;;;;;23.90;45.01;101394.31;5031348;28;20029;-65
2023/06/30 04:15:09;;;;;;;4.78;1.48;;;;;;;23.88;45.46;101390.97;5031172;28;20033;-64
2023/06/30 04:17:35;;;;;;;4.18;1.40;;;;;;;23.88;45.26;101396.31;5031926;28;20033;-65
2023/06/30 04:20:00;;;;;;;2.97;1.33;;;;;;;23.89;44.94;101397.13;5030185;28;20055;-63
2023/06/30 04:22:25;;;;;;;4.05;1.40;;;;;;;23.87;44.83;101391.13;5030863;28;20493;-65
2023/06/30 04:24:50;;;;;;;4.50;1.20;;;;;;;23.88;45.14;101398.97;5030917;28;20052;-64
2023/06/30 04:27:16;;;;;;;3.03;1.30;;;;;;;23.87;45.02;101397.28;5031290;28;20262;-63
2023/06/30 04:29:41;;;;;;;4.95;2.03;;;;;;;23.87;44.89;101393.78;5030906;28;20270;-64
2023/06/30 04:32:06;;;;;;;3.78;1.30;;;;;;;23.88;44.76;101395.47;5030820;28;20059;-65
2023/06/30 04:34:32;;;;;;;3.00;1.20;;;;;;;23.85;45.05;101393.94;5031138;28;20473;-65
2023/06/30 04:36:57;;;;;;;3.50;1.30;;;;;;;23.86;45.10;101395.63;5030926;28;20040;-65
2023/06/30 04:39:22;;;;;;;5.32;1.63;;;;;;;23.86;44.97;101392.97;5030497;28;20525;-65
2023/06/30 04:41:47;;;;;;;4.45;1.40;;;;;;;23.85;45.21;101390.44;5031136;28;20038;-64
2023/06/30 04:44:13;;;;;;;3.38;1.40;;;;;;;23.85;45.06;101387.78;5031127;28;20033;-64
2023/06/30 04:46:38;;;;;;;3.78;1.40;;;;;;;23.84;44.79;101389.59;5030659;28;20025;-65
2023/06/30 04:49:04;;;;;;;4.80;1.70;;;;;;;23.84;44.98;101394.91;5030538;28;20045;-64
2023/06/30 04:51:29;;;;;;;3.65;1.40;;;;;;;23.84;45.12;101396.75;5030482;28;20029;-66
2023/06/30 04:53:55;;;;;;;3.88;1.30;;;;;;;23.85;45.29;101403.75;5030921;28;20029;-65
2023/06/30 04:56:20;;;;;;;3.55;1.40;;;;;;;23.85;45.14;101403.75;5030732;28;20056;-65
2023/06/30 04:58:46;;;;;;;3.47;1.38;;;;;;;23.84;45.04;101400.25;5029990;28;20124;-65
2023/06/30 05:01:11;;;;;;;4.80;1.52;;;;;;;23.83;44.73;101401.25;5030437;28;20040;-64
2023/06/30 05:03:36;;;;;;;4.60;1.50;;;;;;;23.83;45.06;101395.91;5030016;28;20037;-64
2023/06/30 05:06:02;;;;;;;3.80;1.67;;;;;;;23.81;44.73;101392.53;5030804;28;20060;-63
2023/06/30 05:08:27;;;;;;;4.30;1.63;;;;;;;23.82;45.14;101396.03;5030671;28;20044;-64
2023/06/30 05:10:53;;;;;;;3.65;1.48;;;;;;;23.82;44.71;101394.19;5030996;28;20090;-64
2023/06/30 05:13:18;;;;;;;3.80;1.45;;;;;;;23.82;44.91;101396.88;5034016;28;20082;-63
2023/06/30 05:15:44;;;;;;;3.25;1.30;;;;;;;23.81;44.63;101397.84;5025277;28;20029;-65
2023/06/30 05:18:09;;;;;;;2.80;1.40;;;;;;;23.82;45.18;101390.72;5034319;28;20033;-64
2023/06/30 05:20:36;;;;;;;4.78;1.35;;;;;;;23.82;45.13;101396.03;5034072;28;20195;-64
2023/06/30 05:23:01;;;;;;;3.30;1.50;;;;;;;23.80;45.11;101393.53;5034320;28;20033;-65
2023/06/30 05:25:27;;;;;;;3.90;1.50;;;;;;;23.81;45.30;101391.69;5034288;28;20037;-64
2023/06/30 05:27:52;;;;;;;3.97;1.40;;;;;;;23.81;44.81;101395.19;5032832;28;20029;-64
2023/06/30 05:30:18;;;;;;;3.33;1.30;;;;;;;23.79;45.39;101402.47;5034174;28;20040;-64
2023/06/30 05:32:43;;;;;;;4.30;1.70;;;;;;;23.81;44.97;101403.16;5034327;28;20471;-64
2023/06/30 05:35:09;;;;;;;3.35;1.35;;;;;;;23.81;44.91;101397.84;5034136;28;20044;-65
2023/06/30 05:37:36;;;;;;;3.50;1.40;;;;;;;23.80;45.26;101395.31;5034273;28;20059;-63
2023/06/30 05:40:01;;;;;;;4.07;1.50;;;;;;;23.81;44.80;101391.69;5033214;28;20469;-66
2023/06/30 05:42:26;;;;;;;4.32;1.50;;;;;;;23.78;45.27;101390.16;5034446;28;20044;-65
2023/06/30 05:44:51;;;;;;;4.50;1.60;;;;;;;23.81;44.66;101397.84;5033913;28;20029;-64
2023/06/30 05:47:17;;;;;;;4.80;2.10;;;;;;;23.79;43.32;101401.66;5034291;28;20033;-63
2023/06/30 05:49:42;;;;;;;4.88;2.28;;;;;;;23.66;43.01;101402.00;5033657;28;20029;-66
2023/06/30 05:52:07;;;;;;;6.57;2.47;;;;;;;23.56;42.84;101402.06;5032983;28;20474;-66
2023/06/30 05:54:33;;;;;;;6.73;1.90;;;;;;;23.43;42.79;101405.06;5033214;28;20037;-66
2023/06/30 05:56:58;;;;;;;5.07;2.00;;;;;;;23.31;42.47;101399.06;5034067;28;20266;-64
2023/06/30 05:59:23;;;;;;;5.35;1.90;;;;;;;23.21;43.19;101398.28;5033400;28;20891;-68
2023/06/30 06:01:49;;;;;;;5.88;2.00;;;;;;;23.12;43.43;101402.63;5034040;28;20072;-65
2023/06/30 06:04:14;;;;;;;4.93;2.15;;;;;;;23.05;43.66;101392.69;5033486;28;20074;-65
2023/06/30 06:06:39;;;;;;;8.52;2.15;;;;;;;23.00;43.72;101404.59;5033671;28;20138;-72
2023/06/30 06:09:05;;;;;;;4.97;1.67;;;;;;;23.02;44.24;101401.78;5033055;28;20057;-68
2023/06/30 06:11:30;;;;;;;6.45;1.73;;;;;;;23.04;44.68;101393.69;5033814;28;20049;-68
2023/06/30 06:13:56;;;;;;;6.38;1.50;;;;;;;23.08;44.87;101393.28;5033286;28;20070;-68
2023/06/30 06:16:21;;;;;;;4.63;1.40;;;;;;;23.12;44.90;101401.81;5033660;28;20496;-69
2023/06/30 06:18:48;;;;;;;4.28;1.40;;;;;;;23.16;45.03;101395.19;5024261;28;20060;-68
2023/06/30 06:21:13;;;;;;;3.92;1.50;;;;;;;23.21;45.24;101397.41;5033158;28;20032;-69
2023/06/30 06:23:39;;;;;;;5.30;1.73;;;;;;;23.23;44.85;101401.63;5032025;28;20037;-69
2023/06/30 06:26:04;;;;;;;4.18;1.25;;;;;;;23.24;44.99;101402.44;5033600;28;20062;-69
2023/06/30 06:28:29;;;;;;;5.03;1.60;;;;;;;23.31;44.74;101420.34;5033453;28;20040;-69
2023/06/30 06:30:55;;;;;;;3.72;1.23;;;;;;;23.35;44.86;101423.53;5033174;28;20187;-68
2023/06/30 06:33:20;;;;;;;5.57;1.42;;;;;;;23.35;45.14;101411.09;5032966;28;20389;-69
2023/06/30 06:35:49;;;;;;;4.50;1.20;;;;;;;23.38;45.02;101412.63;5033235;28;20036;-67
2023/06/30 06:38:18;;;;;;;3.63;1.30;;;;;;;23.41;45.08;101414.97;5032406;28;20075;-68
2023/06/30 06:40:45;;;;;;;3.95;1.35;;;;;;;23.44;44.98;101414.69;5033124;28;20038;-69
2023/06/30 06:43:10;;;;;;;3.92;1.50;;;;;;;23.45;44.65;101411.06;5023855;28;20040;-68
2023/06/30 06:45:35;;;;;;;6.30;1.63;;;;;;;23.48;45.07;101416.09;5033950;28;20697;-69
2023/06/30 06:48:23;;;;;;;3.83;1.20;;;;;;;23.49;44.83;101412.44;5032385;28;20063;-69
2023/06/30 06:50:51;;;;;;;3.03;1.27;;;;;;;23.52;44.62;101413.97;5032652;28;20307;-69
2023/06/30 06:53:21;;;;;;;3.42;1.15;;;;;;;23.52;44.87;101411.31;5032463;28;20367;-69
2023/06/30 06:55:51;;;;;;;5.20;1.60;;;;;;;23.55;44.56;101411.84;5033393;28;20025;-68
2023/06/30 06:58:16;;;;;;;3.80;1.60;;;;;;;23.57;44.85;101408.22;5032629;28;20036;-69
2023/06/30 07:00:44;;;;;;;5.20;1.25;;;;;;;23.56;44.76;101404.72;5033328;28;20963;-68
2023/06/30 07:03:09;;;;;;;3.30;1.25;;;;;;;23.58;44.83;101405.41;5032735;28;20546;-69
2023/06/30 07:05:35;;;;;;;3.53;1.35;;;;;;;23.58;44.33;101408.06;5032420;28;20132;-67
2023/06/30 07:08:00;;;;;;;9.95;1.65;;;;;;;23.60;44.73;101418.56;5030839;28;20037;-67
2023/06/30 07:10:25;;;;;;;6.60;1.33;;;;;;;23.63;44.77;101410.28;5030382;28;20033;-69
2023/06/30 07:12:52;;;;;;;8.73;1.63;;;;;;;23.62;44.95;101406.75;5030723;28;20032;-70
2023/06/30 07:15:17;;;;;;;5.75;1.27;;;;;;;23.66;44.75;101410.81;5030905;28;20052;-69
2023/06/30 07:17:43;;;;;;;7.70;1.63;;;;;;;23.66;45.05;101416.13;5032221;28;21242;-69
2023/06/30 07:20:08;;;;;;;4.60;1.50;;;;;;;23.67;45.28;101411.66;5031295;28;20041;-68
2023/06/30 07:22:34;;;;;;;5.32;1.50;;;;;;;23.68;45.45;101414.16;5032167;28;20029;-69
2023/06/30 07:25:02;;;;;;;10.30;1.90;;;;;;;23.74;45.01;101407.41;5029396;28;20127;-65
2023/06/30 07:27:27;;;;;;;7.95;1.65;;;;;;;23.76;45.07;101420.59;5031046;28;20413;-69
2023/06/30 07:29:53;;;;;;;8.23;1.50;;;;;;;23.77;45.33;101416.94;5030895;28;20052;-64
2023/06/30 07:32:18;;;;;;;9.73;1.70;;;;;;;23.80;45.06;101413.97;5031276;28;20389;-64
2023/06/30 07:34:43;;;;;;;7.75;1.35;;;;;;;23.82;45.14;101409.34;5031405;28;20048;-69
2023/06/30 07:37:09;;;;;;;6.47;1.30;;;;;;;23.84;45.51;101413.53;5031491;28;20068;-64
2023/06/30 07:39:34;;;;;;;9.00;1.70;;;;;;;23.84;45.18;101431.34;5031673;28;20116;-66
2023/06/30 07:41:59;;;;;;;6.18;1.40;;;;;;;23.85;45.05;101417.06;5031027;28;20055;-66
2023/06/30 07:44:25;;;;;;;5.70;1.40;;;;;;;23.87;45.46;101415.09;5031428;28;20025;-68
2023/06/30 07:46:50;;;;;;;6.57;1.58;;;;;;;23.90;44.82;101420.94;5031077;28;20037;-67
2023/06/30 07:49:16;;;;;;;5.07;1.48;;;;;;;23.89;44.94;101418.44;5031093;28;20043;-66
2023/06/30 07:51:41;;;;;;;6.80;1.30;;;;;;;23.92;44.72;101419.97;5030927;28;20481;-68
2023/06/30 07:54:07;;;;;;;13.05;2.03;;;;;;;23.93;44.87;101411.81;5031261;28;20507;-66
2023/06/30 07:56:33;;;;;;;9.02;1.70;;;;;;;23.94;44.49;101404.66;5030091;28;20025;-65
2023/06/30 07:58:58;;;;;;;6.82;1.38;;;;;;;23.97;44.59;101412.34;5030274;28;20039;-69
2023/06/30 08:01:24;;;;;;;8.75;1.92;;;;;;;23.98;44.21;101414.03;5030920;28;20033;-66
2023/06/30 08:03:49;;;;;;;6.43;1.40;;;;;;;24.01;44.64;101417.25;5030753;28;20496;-67
2023/06/30 08:06:14;;;;;;;5.53;1.40;;;;;;;23.98;44.51;101416.72;5030657;28;20174;-67
2023/06/30 08:08:40;;;;;;;5.70;1.42;;;;;;;24.03;44.04;101412.59;5030221;28;20029;-67
2023/06/30 08:11:05;;;;;;;4.95;1.63;;;;;;;24.04;44.01;101411.63;5030813;28;20083;-68
2023/06/30 08:13:31;;;;;;;5.40;1.42;;;;;;;24.06;44.09;101419.44;5030673;28;20033;-65
2023/06/30 08:15:56;;;;;;;5.93;1.38;;;;;;;24.07;44.20;101411.31;5030755;28;20037;-67
2023/06/30 08:18:22;;;;;;;7.35;1.60;;;;;;;24.09;43.75;101408.50;5029917;28;20033;-67
2023/06/30 08:20:47;;;;;;;4.32;1.23;;;;;;;24.09;43.93;101414.66;5029337;28;20112;-66
2023/06/30 08:23:14;;;;;;;5.43;1.40;;;;;;;24.15;43.51;101412.38;5031249;28;20041;-68
2023/06/30 08:25:40;;;;;;;6.80;1.27;;;;;;;24.17;43.84;101413.06;5030820;28;20436;-65
2023/06/30 08:28:05;;;;;;;6.55;1.55;;;;;;;24.17;43.83;101405.91;5029859;28;20115;-68
2023/06/30 08:30:31;;;;;;;8.10;1.10;;;;;;;24.17;43.40;101405.09;5029079;28;20064;-66
2023/06/30 08:32:56;;;;;;;9.30;1.88;;;;;;;24.18;43.97;101412.94;5031166;28;20029;-65
2023/06/30 08:35:21;;;;;;;14.00;1.77;;;;;;;24.14;44.02;101402.72;5031014;28;20064;-66
2023/06/30 08:37:47;;;;;;;7.07;1.30;;;;;;;24.18;44.19;101417.41;5030868;28;20095;-66
2023/06/30 08:40:12;;;;;;;8.15;1.55;;;;;;;24.17;44.16;101410.41;5030901;28;20033;-65
2023/06/30 08:42:44;;;;;;;6.78;1.40;;;;;;;24.15;43.90;101407.91;5030249;28;20034;-64
2023/06/30 08:45:12;;;;;;;8.15;1.60;;;;;;;24.15;44.21;101397.25;5031793;28;20120;-64
2023/06/30 08:47:38;;;;;;;6.32;1.48;;;;;;;24.15;43.93;101391.94;5037147;28;20036;-64
2023/06/30 08:50:06;;;;;;;5.32;1.30;;;;;;;24.17;44.16;101394.44;5037632;28;20567;-65
2023/06/30 08:52:31;;;;;;;15.77;1.80;;;;;;;24.17;44.02;101386.44;5037640;28;20486;-64
2023/06/30 08:54:56;;;;;;;8.38;1.70;;;;;;;24.16;43.92;101387.44;5037348;28;20117;-65
2023/06/30 08:57:23;;;;;;;9.70;1.70;;;;;;;24.16;43.83;101390.09;5037583;28;20037;-65
2023/06/30 08:59:48;;;;;;;6.18;1.20;;;;;;;24.09;43.59;101382.72;5037331;28;20033;-63
2023/06/30 09:02:14;;;;;;;7.40;1.45;;;;;;;24.14;43.53;101384.09;5037628;28;20493;-64
2023/06/30 09:04:43;;;;;;;3.88;1.25;;;;;;;24.11;43.39;101382.56;5037513;28;20045;-64
2023/06/30 09:07:15;;;;;;;3.22;1.08;;;;;;;24.10;43.93;101375.56;5035743;28;20120;-65
2023/06/30 09:09:47;;;;;;;7.40;1.73;;;;;;;24.09;43.48;101382.72;5037496;28;20037;-66
2023/06/30 09:12:14;;;;;;;3.90;1.20;;;;;;;24.11;43.60;101381.72;5037092;28;20711;-65
2023/06/30 09:14:43;;;;;;;4.53;1.40;;;;;;;24.09;43.92;101380.03;5036520;28;20059;-65
2023/06/30 09:17:09;;;;;;;6.22;1.10;;;;;;;24.11;43.54;101385.22;5037140;28;20040;-65
2023/06/30 09:19:35;;;;;;;8.25;1.30;;;;;;;24.09;44.01;101379.22;5036549;28;20631;-66
2023/06/30 09:22:02;;;;;;;5.25;1.20;;;;;;;24.08;43.13;101380.19;5037554;28;20087;-65
2023/06/30 09:24:27;;;;;;;5.25;1.08;;;;;;;24.09;43.58;101376.56;5036708;28;20061;-65
2023/06/30 09:26:53;;;;;;;3.88;1.20;;;;;;;24.08;43.18;101374.88;5036898;28;20068;-66
2023/06/30 09:29:23;;;;;;;4.22;1.10;;;;;;;24.07;43.54;101370.56;5037179;28;20132;-65
2023/06/30 09:31:51;;;;;;;6.50;1.40;;;;;;;24.06;43.26;101374.19;5037491;28;20033;-65
2023/06/30 09:34:19;;;;;;;5.38;1.20;;;;;;;24.08;43.45;101364.22;5037736;28;20831;-65
2023/06/30 09:36:49;;;;;;;2.88;1.00;;;;;;;24.03;43.45;101367.34;5035808;28;20033;-65
2023/06/30 09:39:14;;;;;;;7.25;2.28;;;;;;;24.06;43.20;101377.69;5037257;28;20053;-65
2023/06/30 09:41:44;;;;;;;5.13;1.30;;;;;;;24.03;43.11;101370.00;5037076;28;20063;-65
2023/06/30 09:44:14;;;;;;;3.63;1.20;;;;;;;24.04;43.45;101368.19;5037376;28;20025;-65
2023/06/30 09:46:53;;;;;;;5.78;1.42;;;;;;;24.02;43.04;101365.69;5036901;28;20057;-65
2023/06/30 09:49:23;;;;;;;5.15;1.17;;;;;;;24.04;43.02;101365.53;5037108;28;20077;-65
2023/06/30 09:51:49;;;;;;;4.72;1.30;;;;;;;24.04;43.27;101354.88;5036964;28;20110;-65
2023/06/30 09:54:17;;;;;;;3.13;1.25;;;;;;;24.04;42.68;101357.53;5051678;28;20856;-66
2023/06/30 09:56:42;;;;;;;4.93;1.30;;;;;;;24.03;42.79;101359.34;5036556;28;20041;-65
2023/06/30 09:59:07;;;;;;;4.03;1.20;;;;;;;24.05;42.67;101361.84;5034169;28;20031;-66
2023/06/30 10:01:34;;;;;;;3.17;1.17;;;;;;;24.03;42.63;101366.50;5033176;28;20508;-65
2023/06/30 10:03:59;;;;;;;2.45;1.00;;;;;;;24.04;42.61;101361.03;5032868;28;20029;-65
2023/06/30 10:06:27;;;;;;;3.25;1.33;;;;;;;24.02;42.74;101364.81;5032817;28;20034;-66
2023/06/30 10:08:56;;;;;;;3.92;1.30;;;;;;;24.04;43.05;101362.88;5034160;28;20060;-65
2023/06/30 10:11:23;;;;;;;3.00;1.00;;;;;;;24.01;43.14;101356.00;5034274;28;20049;-64
2023/06/30 10:13:50;;;;;;;4.65;1.10;;;;;;;24.02;43.23;101356.84;5032663;28;20032;-64
2023/06/30 10:16:18;;;;;;;4.28;1.33;;;;;;;24.00;42.64;101356.16;5033532;28;20029;-64
2023/06/30 10:18:45;;;;;;;3.47;1.10;;;;;;;24.01;43.02;101353.34;5032958;28;20041;-63
2023/06/30 10:21:11;;;;;;;3.92;1.20;;;;;;;24.01;43.27;101353.34;5033298;28;20037;-65
2023/06/30 10:23:39;;;;;;;4.80;1.20;;;;;;;24.02;42.95;101351.50;5033818;28;20446;-66
2023/06/30 10:26:06;;;;;;;9.70;1.40;;;;;;;24.00;43.26;101349.00;5032819;28;20029;-64
2023/06/30 10:28:35;;;;;;;4.30;1.00;;;;;;;23.99;43.34;101344.69;5033591;28;20052;-65
2023/06/30 10:31:02;;;;;;;7.03;1.40;;;;;;;24.03;42.62;101345.22;5033481;28;20040;-64
2023/06/30 10:33:27;;;;;;;4.07;1.02;;;;;;;24.01;42.93;101340.03;5033358;28;20044;-65
2023/06/30 10:35:53;;;;;;;4.22;1.15;;;;;;;24.02;43.35;101338.19;5033018;28;20037;-65
2023/06/30 10:38:19;;;;;;;4.00;1.20;;;;;;;24.04;43.15;101338.91;5033320;28;20033;-64
2023/06/30 10:40:46;;;;;;;4.22;1.17;;;;;;;24.00;42.88;101332.19;5032669;28;20021;-63
2023/06/30 10:43:13;;;;;;;5.65;1.10;;;;;;;24.01;42.72;101334.72;5032424;28;20412;-64
2023/06/30 10:46:07;;;;;;;2.92;1.20;;;;;;;24.02;43.03;101336.41;5032980;28;20175;-66
2023/06/30 10:48:33;;;;;;;6.18;1.20;;;;;;;24.04;43.21;101331.75;5033296;28;20025;-65
2023/06/30 10:50:58;;;;;;;2.58;1.02;;;;;;;24.03;43.09;101321.25;5032812;28;20030;-64
2023/06/30 10:53:26;;;;;;;3.97;1.17;;;;;;;24.02;43.09;101322.22;5032931;28;20041;-65
2023/06/30 10:55:56;;;;;;;2.78;1.10;;;;;;;24.00;42.67;101322.38;5032453;28;20480;-65
2023/06/30 10:58:23;;;;;;;3.88;1.08;;;;;;;24.04;42.10;101325.59;5032389;28;20489;-65
2023/06/30 11:01:09;;;;;;;4.35;1.33;;;;;;;24.04;42.59;101329.09;5032379;28;20041;-65
2023/06/30 11:03:59;;;;;;;3.35;0.95;;;;;;;24.04;42.46;101322.94;5031769;28;20412;-65
2023/06/30 11:06:25;;;;;;;3.53;1.13;;;;;;;24.04;42.38;101298.97;5032403;28;20024;-65
2023/06/30 11:09:09;;;;;;;3.63;1.15;;;;;;;24.02;42.28;101303.59;5030889;28;20384;-65
2023/06/30 11:11:51;;;;;;;4.13;1.27;;;;;;;24.01;41.94;101305.44;5032358;28;20037;-65
2023/06/30 11:14:31;;;;;;;4.78;1.10;;;;;;;23.97;42.04;101298.72;5032843;28;20116;-65
2023/06/30 11:17:05;;;;;;;3.17;1.40;;;;;;;24.00;41.79;101300.25;5032422;28;20036;-66
2023/06/30 11:19:31;;;;;;;3.20;1.10;;;;;;;24.03;42.18;101305.28;5031538;28;20538;-65
2023/06/30 11:22:21;;;;;;;3.78;1.00;;;;;;;24.03;42.23;101300.78;5032479;28;20034;-65